createdAt,value
2018-05-08T00:00:58.064Z,74.89
2018-05-08T00:03:23.848Z,74.87
2018-05-08T00:05:49.654Z,75.29
2018-05-08T00:08:15.477Z,75.53
2018-05-08T00:10:41.256Z,75.21
2018-05-08T00:13:07.061Z,75.09
2018-05-08T00:15:32.864Z,75.01
2018-05-08T00:17:58.647Z,75.59
2018-05-08T00:20:24.461Z,75.82
2018-05-08T00:22:50.242Z,76.61
2018-05-08T00:25:16.026Z,76.74
2018-05-08T00:27:41.843Z,76.53
2018-05-08T00:30:07.632Z,76.02
2018-05-08T00:32:33.404Z,76.17
2018-05-08T00:34:59.207Z,76.46
2018-05-08T00:37:24.986Z,76.54
2018-05-08T00:39:50.805Z,76.55
2018-05-08T00:42:16.578Z,76.34
2018-05-08T00:44:42.363Z,76.53
2018-05-08T00:47:08.161Z,77.02
2018-05-08T00:49:33.968Z,77.46
2018-05-08T00:51:59.752Z,76.57
2018-05-08T00:54:38.346Z,76.69
2018-05-08T00:57:04.128Z,76.12
2018-05-08T00:59:29.928Z,76.34
2018-05-08T01:01:55.728Z,76.59
2018-05-08T01:04:22.069Z,76.47
2018-05-08T01:06:48.521Z,77.09
2018-05-08T01:09:14.867Z,76.52
2018-05-08T01:11:40.679Z,76.23
2018-05-08T01:14:06.450Z,77.02
2018-05-08T01:16:32.276Z,76.52
2018-05-08T01:18:58.078Z,76.28
2018-05-08T01:21:23.863Z,76.48
2018-05-08T01:23:49.675Z,76.74
2018-05-08T01:26:15.492Z,77.11
2018-05-08T01:28:41.368Z,77.62
2018-05-08T01:31:07.162Z,77.69
2018-05-08T01:33:32.949Z,77.43
2018-05-08T01:35:58.746Z,77.52
2018-05-08T01:38:24.918Z,77.71
2018-05-08T01:40:50.773Z,77.42
2018-05-08T01:43:16.599Z,77.17
2018-05-08T01:45:42.343Z,77.58
2018-05-08T01:48:08.157Z,77.45
2018-05-08T01:50:33.972Z,77.06
2018-05-08T01:52:59.755Z,76.69
2018-05-08T01:55:25.576Z,76.62
2018-05-08T01:57:51.382Z,76.33
2018-05-08T02:00:17.181Z,76.64
2018-05-08T02:02:42.970Z,76.48
2018-05-08T02:05:08.782Z,77.17
2018-05-08T02:10:00.280Z,76.94
2018-05-08T02:12:26.082Z,77.62
2018-05-08T02:14:51.875Z,78.80
2018-05-08T02:17:17.665Z,78.58
2018-05-08T02:19:43.734Z,78.65
2018-05-08T02:22:09.525Z,77.74
2018-05-08T02:24:35.306Z,77.38
2018-05-08T02:27:01.110Z,77.56
2018-05-08T02:29:27.235Z,77.31
2018-05-08T02:31:53.020Z,77.20
2018-05-08T02:34:18.824Z,77.22
2018-05-08T02:36:44.604Z,77.44
2018-05-08T02:39:10.404Z,76.95
2018-05-08T02:41:36.186Z,77.08
2018-05-08T02:44:02.135Z,77.25
2018-05-08T02:46:27.863Z,76.56
2018-05-08T02:48:53.862Z,76.73
2018-05-08T02:51:19.678Z,76.84
2018-05-08T02:53:45.470Z,76.97
2018-05-08T02:58:49.237Z,77.24
2018-05-08T03:01:15.051Z,76.97
2018-05-08T03:03:40.844Z,76.86
2018-05-08T03:06:06.638Z,76.79
2018-05-08T03:08:32.450Z,77.23
2018-05-08T03:10:58.256Z,77.05
2018-05-08T03:13:24.073Z,76.78
2018-05-08T03:15:49.849Z,77.09
2018-05-08T03:18:15.644Z,77.80
2018-05-08T03:20:41.453Z,78.06
2018-05-08T03:23:07.246Z,78.22
2018-05-08T03:25:33.038Z,77.97
2018-05-08T03:27:58.842Z,77.78
2018-05-08T03:30:24.652Z,78.44
2018-05-08T03:32:50.438Z,78.70
2018-05-08T03:35:16.220Z,79.43
2018-05-08T03:37:42.029Z,79.02
2018-05-08T03:40:07.806Z,79.61
2018-05-08T03:42:33.629Z,80.25
2018-05-08T03:45:02.413Z,79.55
2018-05-08T03:47:28.202Z,81.23
2018-05-08T03:49:54.006Z,81.69
2018-05-08T03:52:19.810Z,81.05
2018-05-08T03:54:45.596Z,81.06
2018-05-08T03:57:11.405Z,81.71
2018-05-08T03:59:37.196Z,81.86
2018-05-08T04:02:15.649Z,81.92
2018-05-08T04:04:53.951Z,82.11
2018-05-08T04:07:32.074Z,81.27
2018-05-08T04:09:57.874Z,81.46
2018-05-08T04:12:23.669Z,80.99
2018-05-08T04:14:49.464Z,81.11
2018-05-08T04:17:15.270Z,80.66
2018-05-08T04:19:41.082Z,80.26
2018-05-08T04:22:06.874Z,80.41
2018-05-08T04:24:32.694Z,80.31
2018-05-08T04:26:58.479Z,80.06
2018-05-08T04:29:24.266Z,80.08
2018-05-08T04:31:50.516Z,80.37
2018-05-08T04:34:16.302Z,80.36
2018-05-08T04:36:42.171Z,80.04
2018-05-08T04:39:07.900Z,80.28
2018-05-08T04:41:33.684Z,79.98
2018-05-08T04:43:59.471Z,79.31
2018-05-08T04:46:25.275Z,79.25
2018-05-08T04:48:51.077Z,78.50
2018-05-08T04:51:16.854Z,78.74
2018-05-08T04:53:42.675Z,78.58
2018-05-08T04:56:08.453Z,78.29
2018-05-08T04:58:34.243Z,78.11
2018-05-08T05:01:00.382Z,78.00
2018-05-08T05:03:26.185Z,77.15
2018-05-08T05:05:52.003Z,77.18
2018-05-08T05:08:17.821Z,77.16
2018-05-08T05:10:43.604Z,77.67
2018-05-08T05:13:09.444Z,76.95
2018-05-08T05:15:35.213Z,77.03
2018-05-08T05:18:01.028Z,76.71
2018-05-08T05:20:26.833Z,76.67
2018-05-08T05:22:52.945Z,76.24
2018-05-08T05:25:18.738Z,76.03
2018-05-08T05:27:44.517Z,76.02
2018-05-08T05:30:10.344Z,75.96
2018-05-08T05:32:36.144Z,75.78
2018-05-08T05:35:01.959Z,75.42
2018-05-08T05:37:27.774Z,75.14
2018-05-08T05:39:54.565Z,74.64
2018-05-08T05:42:20.362Z,74.52
2018-05-08T05:44:46.163Z,73.68
2018-05-08T05:47:11.960Z,73.83
2018-05-08T05:49:37.762Z,73.01
2018-05-08T05:52:03.569Z,72.66
2018-05-08T05:54:29.410Z,72.88
2018-05-08T05:56:55.229Z,72.53
2018-05-08T05:59:21.129Z,71.87
2018-05-08T06:01:46.986Z,71.66
2018-05-08T06:04:12.838Z,71.81
2018-05-08T06:06:38.769Z,71.50
2018-05-08T06:09:04.589Z,71.28
2018-05-08T06:11:30.402Z,71.28
2018-05-08T06:13:56.206Z,70.56
2018-05-08T06:16:21.991Z,70.44
2018-05-08T06:18:47.797Z,70.19
2018-05-08T06:21:13.585Z,70.00
2018-05-08T06:23:39.365Z,69.40
2018-05-08T06:26:05.299Z,68.63
2018-05-08T06:28:31.154Z,68.90
2018-05-08T06:30:56.907Z,68.67
2018-05-08T06:33:22.726Z,67.87
2018-05-08T06:35:48.534Z,67.90
2018-05-08T06:38:14.326Z,66.95
2018-05-08T06:40:40.148Z,65.93
2018-05-08T06:43:06.025Z,64.81
2018-05-08T06:45:31.818Z,65.35
2018-05-08T06:47:57.849Z,64.96
2018-05-08T06:50:23.642Z,65.17
2018-05-08T06:52:49.466Z,63.97
2018-05-08T06:55:15.253Z,63.00
2018-05-08T06:57:41.053Z,62.40
2018-05-08T07:00:06.852Z,62.19
2018-05-08T07:02:32.653Z,62.38
2018-05-08T07:04:58.445Z,61.78
2018-05-08T07:07:24.229Z,60.56
2018-05-08T07:09:50.027Z,60.32
2018-05-08T07:12:15.846Z,59.50
2018-05-08T07:14:41.651Z,58.59
2018-05-08T07:17:07.460Z,58.30
2018-05-08T07:19:33.249Z,58.07
2018-05-08T07:21:59.053Z,58.48
2018-05-08T07:24:24.886Z,57.46
2018-05-08T07:26:50.687Z,58.26
2018-05-08T07:29:16.483Z,58.18
2018-05-08T07:31:42.322Z,58.04
2018-05-08T07:34:08.136Z,57.70
2018-05-08T07:36:33.922Z,56.98
2018-05-08T07:38:59.730Z,53.92
2018-05-08T07:41:25.538Z,54.20
2018-05-08T07:43:51.358Z,55.06
2018-05-08T07:46:17.149Z,55.69
2018-05-08T07:48:42.964Z,53.06
2018-05-08T07:51:09.094Z,52.56
2018-05-08T07:53:34.893Z,51.17
2018-05-08T07:56:00.685Z,51.52
2018-05-08T07:58:26.511Z,51.69
2018-05-08T08:00:52.309Z,51.20
2018-05-08T08:03:18.135Z,50.16
2018-05-08T08:05:43.938Z,49.61
2018-05-08T08:08:09.758Z,49.52
2018-05-08T08:10:35.557Z,49.84
2018-05-08T08:13:03.406Z,48.71
2018-05-08T08:15:29.257Z,49.92
2018-05-08T08:17:55.080Z,48.81
2018-05-08T08:20:20.855Z,48.11
2018-05-08T08:22:46.637Z,46.77
2018-05-08T08:25:12.442Z,46.97
2018-05-08T08:27:38.237Z,45.97
2018-05-08T08:30:04.075Z,46.11
2018-05-08T08:32:29.932Z,44.70
2018-05-08T08:34:55.784Z,45.20
2018-05-08T08:37:21.616Z,45.55
2018-05-08T08:39:47.456Z,45.58
2018-05-08T08:42:13.321Z,45.28
2018-05-08T08:44:39.172Z,44.57
2018-05-08T08:47:05.012Z,44.98
2018-05-08T08:49:31.015Z,43.69
2018-05-08T08:51:56.837Z,44.05
2018-05-08T08:54:22.639Z,43.56
2018-05-08T08:56:48.456Z,44.18
2018-05-08T08:59:14.234Z,44.47
2018-05-08T09:01:40.001Z,42.66
2018-05-08T09:04:05.873Z,41.42
2018-05-08T09:06:31.621Z,40.78
2018-05-08T09:08:57.399Z,38.98
2018-05-08T09:11:23.198Z,39.26
2018-05-08T09:13:49.035Z,39.07
2018-05-08T09:16:14.817Z,38.73
2018-05-08T09:18:40.633Z,39.66
2018-05-08T09:21:06.411Z,38.02
2018-05-08T09:23:32.192Z,38.59
2018-05-08T09:25:58.218Z,39.28
2018-05-08T09:28:23.986Z,39.69
2018-05-08T09:30:49.776Z,39.05
2018-05-08T09:33:15.557Z,38.39
2018-05-08T09:35:41.334Z,39.24
2018-05-08T09:38:07.112Z,38.97
2018-05-08T09:40:32.930Z,39.29
2018-05-08T09:42:58.774Z,38.40
2018-05-08T09:45:24.565Z,38.05
2018-05-08T09:47:50.333Z,39.13
2018-05-08T09:50:16.108Z,37.44
2018-05-08T09:52:41.904Z,37.99
2018-05-08T09:55:07.735Z,37.84
2018-05-08T09:57:33.519Z,37.72
2018-05-08T09:59:59.318Z,37.74
2018-05-08T10:02:25.117Z,37.37
2018-05-08T10:04:50.890Z,36.40
2018-05-08T10:07:16.685Z,34.74
2018-05-08T10:09:42.463Z,34.76
2018-05-08T10:12:08.253Z,35.19
2018-05-08T10:14:34.326Z,35.71
2018-05-08T10:17:00.098Z,36.23
2018-05-08T10:19:25.863Z,34.89
2018-05-08T10:21:51.661Z,34.53
2018-05-08T10:24:17.460Z,33.72
2018-05-08T10:26:43.303Z,34.07
2018-05-08T10:29:09.059Z,34.17
2018-05-08T10:31:34.826Z,34.65
2018-05-08T10:34:00.618Z,33.78
2018-05-08T10:36:26.394Z,33.11
2018-05-08T10:38:52.169Z,33.92
2018-05-08T10:41:17.967Z,34.59
2018-05-08T10:43:43.756Z,34.20
2018-05-08T10:46:09.550Z,34.71
2018-05-08T10:48:35.473Z,34.59
2018-05-08T10:51:01.246Z,34.52
2018-05-08T10:53:27.022Z,33.20
2018-05-08T10:55:52.807Z,32.46
2018-05-08T10:58:18.627Z,31.75
2018-05-08T11:00:44.698Z,32.61
2018-05-08T11:03:10.495Z,32.13
2018-05-08T11:05:36.307Z,32.17
2018-05-08T11:08:02.123Z,32.54
2018-05-08T11:10:27.907Z,32.56
2018-05-08T11:12:53.698Z,31.87
2018-05-08T11:15:19.484Z,32.25
2018-05-08T11:17:45.264Z,32.89
2018-05-08T11:20:11.060Z,30.97
2018-05-08T11:22:36.850Z,31.80
2018-05-08T11:25:02.671Z,31.81
2018-05-08T11:27:28.445Z,31.93
2018-05-08T11:29:54.227Z,31.49
2018-05-08T11:32:20.005Z,31.75
2018-05-08T11:34:46.835Z,32.07
2018-05-08T11:37:12.623Z,30.31
2018-05-08T11:39:38.418Z,30.79
2018-05-08T11:42:04.234Z,30.57
2018-05-08T11:44:30.040Z,31.25
2018-05-08T11:46:55.834Z,31.91
2018-05-08T11:49:21.646Z,31.95
2018-05-08T11:51:47.481Z,30.79
2018-05-08T11:54:13.274Z,31.30
2018-05-08T11:56:39.069Z,30.14
2018-05-08T11:59:04.873Z,31.17
2018-05-08T12:01:30.670Z,30.94
2018-05-08T12:03:56.665Z,31.02
2018-05-08T12:06:22.462Z,31.91
2018-05-08T12:08:48.258Z,31.70
2018-05-08T12:11:14.050Z,31.16
2018-05-08T12:13:39.861Z,30.40
2018-05-08T12:16:05.646Z,30.71
2018-05-08T12:18:31.432Z,30.63
2018-05-08T12:20:57.241Z,30.31
2018-05-08T12:23:23.039Z,29.70
2018-05-08T12:25:48.941Z,28.73
2018-05-08T12:28:14.747Z,28.90
2018-05-08T12:30:40.618Z,29.79
2018-05-08T12:33:06.357Z,29.70
2018-05-08T12:35:32.165Z,28.54
2018-05-08T12:37:57.971Z,28.37
2018-05-08T12:40:23.778Z,28.95
2018-05-08T12:42:49.580Z,27.81
2018-05-08T12:45:15.398Z,27.63
2018-05-08T12:47:41.231Z,27.11
2018-05-08T12:50:07.044Z,27.37
2018-05-08T12:52:32.847Z,28.01
2018-05-08T12:54:58.688Z,27.34
2018-05-08T12:57:24.542Z,27.08
2018-05-08T12:59:50.339Z,26.75
2018-05-08T13:02:16.155Z,27.51
2018-05-08T13:04:41.981Z,27.17
2018-05-08T13:07:07.775Z,27.01
2018-05-08T13:09:33.565Z,26.93
2018-05-08T13:11:59.377Z,27.86
2018-05-08T13:14:25.154Z,27.58
2018-05-08T13:16:50.941Z,27.51
2018-05-08T13:19:16.734Z,27.88
2018-05-08T13:21:42.536Z,26.10
2018-05-08T13:24:08.359Z,26.22
2018-05-08T13:26:34.134Z,26.29
2018-05-08T13:28:59.935Z,26.35
2018-05-08T13:31:25.717Z,27.33
2018-05-08T13:33:51.517Z,26.94
2018-05-08T13:36:17.350Z,26.80
2018-05-08T13:38:43.173Z,26.57
2018-05-08T13:41:09.028Z,26.60
2018-05-08T13:43:34.839Z,27.10
2018-05-08T13:46:00.629Z,26.04
2018-05-08T13:48:26.745Z,25.68
2018-05-08T13:50:52.521Z,25.79
2018-05-08T13:53:18.397Z,25.35
2018-05-08T13:55:44.510Z,26.23
2018-05-08T13:58:10.290Z,26.83
2018-05-08T14:00:36.085Z,26.59
2018-05-08T14:03:01.899Z,27.85
2018-05-08T14:05:27.705Z,27.41
2018-05-08T14:07:53.487Z,27.82
2018-05-08T14:10:19.293Z,27.60
2018-05-08T14:12:45.082Z,27.28
2018-05-08T14:15:10.879Z,25.87
2018-05-08T14:17:36.770Z,25.83
2018-05-08T14:20:02.679Z,26.39
2018-05-08T14:22:28.491Z,26.23
2018-05-08T14:24:54.856Z,25.68
2018-05-08T14:27:20.648Z,26.08
2018-05-08T14:29:46.469Z,25.62
2018-05-08T14:32:12.268Z,25.28
2018-05-08T14:34:38.060Z,26.41
2018-05-08T14:37:03.895Z,26.91
2018-05-08T14:39:29.637Z,27.23
2018-05-08T14:41:55.471Z,26.82
2018-05-08T14:44:21.284Z,25.03
2018-05-08T14:46:47.070Z,24.79
2018-05-08T14:49:12.883Z,25.95
2018-05-08T14:51:38.674Z,25.92
2018-05-08T14:54:04.532Z,26.13
2018-05-08T14:56:30.317Z,26.85
2018-05-08T14:58:56.244Z,27.10
2018-05-08T15:01:21.943Z,26.84
2018-05-08T15:03:47.726Z,26.92
2018-05-08T15:06:13.559Z,27.85
2018-05-08T15:08:39.392Z,28.21
2018-05-08T15:11:05.233Z,28.72
2018-05-08T15:13:31.108Z,27.51
2018-05-08T15:15:56.826Z,27.85
2018-05-08T15:18:22.621Z,28.16
2018-05-08T15:20:48.409Z,28.82
2018-05-08T15:23:14.223Z,28.99
2018-05-08T15:25:40.024Z,29.00
2018-05-08T15:28:05.817Z,29.00
2018-05-08T15:30:31.627Z,28.32
2018-05-08T15:32:57.429Z,28.55
2018-05-08T15:35:23.225Z,28.99
2018-05-08T15:37:49.028Z,28.67
2018-05-08T15:40:14.801Z,29.28
2018-05-08T15:42:40.618Z,29.76
2018-05-08T15:45:06.397Z,30.15
2018-05-08T15:47:32.190Z,29.35
2018-05-08T15:49:58.176Z,29.64
2018-05-08T15:52:23.975Z,29.71
2018-05-08T15:54:49.765Z,30.00
2018-05-08T15:57:15.561Z,30.18
2018-05-08T15:59:41.350Z,30.13
2018-05-08T16:02:07.215Z,29.97
2018-05-08T16:04:33.898Z,29.77
2018-05-08T16:06:59.701Z,30.39
2018-05-08T16:09:25.506Z,30.98
2018-05-08T16:11:51.293Z,31.45
2018-05-08T16:14:17.090Z,31.65
2018-05-08T16:16:43.053Z,31.40
2018-05-08T16:19:08.868Z,31.19
2018-05-08T16:21:34.671Z,31.25
2018-05-08T16:24:00.465Z,31.38
2018-05-08T16:26:26.257Z,31.21
2018-05-08T16:28:52.045Z,31.75
2018-05-08T16:31:17.838Z,32.12
2018-05-08T16:33:43.629Z,32.25
2018-05-08T16:36:09.447Z,32.15
2018-05-08T16:38:35.250Z,31.57
2018-05-08T16:41:01.043Z,31.46
2018-05-08T16:43:26.897Z,30.91
2018-05-08T16:45:52.698Z,30.93
2018-05-08T16:48:18.532Z,30.97
2018-05-08T16:50:44.321Z,31.08
2018-05-08T16:53:10.127Z,30.60
2018-05-08T16:55:35.942Z,30.77
2018-05-08T16:58:01.751Z,30.72
2018-05-08T17:00:27.548Z,31.09
2018-05-08T17:02:53.339Z,31.68
2018-05-08T17:05:19.139Z,32.40
2018-05-08T17:07:44.913Z,32.23
2018-05-08T17:10:10.701Z,32.27
2018-05-08T17:12:36.510Z,32.76
2018-05-08T17:15:02.464Z,32.56
2018-05-08T17:17:28.272Z,32.92
2018-05-08T17:19:54.073Z,33.08
2018-05-08T17:22:20.078Z,32.99
2018-05-08T17:24:45.865Z,33.47
2018-05-08T17:27:11.664Z,33.36
2018-05-08T17:29:37.449Z,33.62
2018-05-08T17:32:03.286Z,33.92
2018-05-08T17:34:29.103Z,34.18
2018-05-08T17:36:54.997Z,33.89
2018-05-08T17:39:20.773Z,34.06
2018-05-08T17:41:46.584Z,34.68
2018-05-08T17:44:12.404Z,34.47
2018-05-08T17:46:38.205Z,34.47
2018-05-08T17:49:04.025Z,34.64
2018-05-08T17:51:29.830Z,34.64
2018-05-08T17:53:55.626Z,34.67
2018-05-08T17:56:21.425Z,33.83
2018-05-08T17:58:47.211Z,34.38
2018-05-08T18:01:13.010Z,34.11
2018-05-08T18:03:38.812Z,34.86
2018-05-08T18:06:04.618Z,35.27
2018-05-08T18:08:30.519Z,34.75
2018-05-08T18:10:56.335Z,34.73
2018-05-08T18:13:22.129Z,35.54
2018-05-08T18:15:48.465Z,34.99
2018-05-08T18:18:14.268Z,34.99
2018-05-08T18:20:40.236Z,35.58
2018-05-08T18:23:06.072Z,35.76
2018-05-08T18:25:31.890Z,35.28
2018-05-08T18:27:57.685Z,35.75
2018-05-08T18:30:23.494Z,35.74
2018-05-08T18:32:49.490Z,36.09
2018-05-08T18:35:15.313Z,36.15
2018-05-08T18:37:41.305Z,35.98
2018-05-08T18:40:07.110Z,36.34
2018-05-08T18:42:33.254Z,36.32
2018-05-08T18:44:59.230Z,36.09
2018-05-08T18:47:25.025Z,36.96
2018-05-08T18:49:51.122Z,36.88
2018-05-08T18:52:16.939Z,36.34
2018-05-08T18:54:42.733Z,36.91
2018-05-08T18:57:08.606Z,37.36
2018-05-08T18:59:34.447Z,37.57
2018-05-08T19:02:00.239Z,37.82
2018-05-08T19:04:26.896Z,38.71
2018-05-08T19:06:52.770Z,37.45
2018-05-08T19:09:18.527Z,37.74
2018-05-08T19:11:44.348Z,37.57
2018-05-08T19:14:10.224Z,37.88
2018-05-08T19:16:36.042Z,37.93
2018-05-08T19:19:07.952Z,37.78
2018-05-08T19:21:34.202Z,37.97
2018-05-08T19:24:06.272Z,38.40
2018-05-08T19:26:32.242Z,38.46
2018-05-08T19:29:04.401Z,39.69
2018-05-08T19:31:30.287Z,38.92
2018-05-08T19:33:56.124Z,39.24
2018-05-08T19:36:27.922Z,39.39
2018-05-08T19:38:53.726Z,39.62
2018-05-08T19:41:19.541Z,39.77
2018-05-08T19:43:45.349Z,39.96
2018-05-08T19:46:11.163Z,40.35
2018-05-08T19:48:36.964Z,40.30
2018-05-08T19:51:02.785Z,40.58
2018-05-08T19:53:28.565Z,40.09
2018-05-08T19:55:54.721Z,40.58
2018-05-08T19:58:20.582Z,40.61
2018-05-08T20:00:46.754Z,40.86
2018-05-08T20:03:12.565Z,40.59
2018-05-08T20:05:38.369Z,40.52
2018-05-08T20:08:04.165Z,41.05
2018-05-08T20:10:30.028Z,41.08
2018-05-08T20:12:55.866Z,40.99
2018-05-08T20:15:21.654Z,41.11
2018-05-08T20:17:47.476Z,41.83
2018-05-08T20:20:13.282Z,41.31
2018-05-08T20:22:39.073Z,41.35
2018-05-08T20:25:04.888Z,41.74
2018-05-08T20:27:30.942Z,42.47
2018-05-08T20:29:56.772Z,41.99
2018-05-08T20:32:22.722Z,42.40
2018-05-08T20:34:48.524Z,43.13
2018-05-08T20:37:14.575Z,43.43
2018-05-08T20:39:40.765Z,43.92
2018-05-08T20:42:06.710Z,44.56
2018-05-08T20:44:32.564Z,44.50
2018-05-08T20:46:58.707Z,44.29
2018-05-08T20:49:24.550Z,45.11
2018-05-08T20:51:50.814Z,46.53
2018-05-08T20:54:16.964Z,46.76
2018-05-08T20:56:42.822Z,46.76
2018-05-08T20:59:08.625Z,47.15
2018-05-08T21:01:34.417Z,47.63
2018-05-08T21:04:00.214Z,47.72
2018-05-08T21:06:26.007Z,48.12
2018-05-08T21:08:52.096Z,47.97
2018-05-08T21:11:17.892Z,48.39
2018-05-08T21:13:43.857Z,48.68
2018-05-08T21:16:10.348Z,48.44
2018-05-08T21:18:36.142Z,49.10
2018-05-08T21:21:02.207Z,48.77
2018-05-08T21:23:28.007Z,49.03
2018-05-08T21:25:53.806Z,48.97
2018-05-08T21:28:26.109Z,49.65
2018-05-08T21:30:58.129Z,49.84
2018-05-08T21:33:23.909Z,49.66
2018-05-08T21:35:49.715Z,49.64
2018-05-08T21:38:15.771Z,50.11
2018-05-08T21:40:41.561Z,50.78
2018-05-08T21:43:07.370Z,50.89
2018-05-08T21:45:33.452Z,51.03
2018-05-08T21:47:59.260Z,51.57
2018-05-08T21:50:25.063Z,51.82
2018-05-08T21:52:50.877Z,52.25
2018-05-08T21:55:16.734Z,52.62
2018-05-08T21:57:42.522Z,52.34
2018-05-08T22:00:11.231Z,52.86
2018-05-08T22:02:37.013Z,53.35
2018-05-08T22:05:02.840Z,53.30
2018-05-08T22:07:28.661Z,53.69
2018-05-08T22:09:54.453Z,54.17
2018-05-08T22:12:20.253Z,54.60
2018-05-08T22:14:46.039Z,54.79
2018-05-08T22:17:11.834Z,55.18
2018-05-08T22:19:37.656Z,55.16
2018-05-08T22:22:03.445Z,55.56
2018-05-08T22:24:29.241Z,55.98
2018-05-08T22:26:55.033Z,56.07
2018-05-08T22:29:20.820Z,56.27
2018-05-08T22:31:46.618Z,56.57
2018-05-08T22:34:12.436Z,56.65
2018-05-08T22:36:38.227Z,56.92
2018-05-08T22:39:04.036Z,57.38
2018-05-08T22:41:29.845Z,57.49
2018-05-08T22:43:55.632Z,57.97
2018-05-08T22:46:21.425Z,59.20
2018-05-08T22:48:47.233Z,58.93
2018-05-08T22:51:13.025Z,58.79
2018-05-08T22:53:38.796Z,58.72
2018-05-08T22:56:04.571Z,59.75
2018-05-08T22:58:30.367Z,59.29
2018-05-08T23:00:56.165Z,60.92
2018-05-08T23:03:21.950Z,59.19
2018-05-08T23:05:47.770Z,59.65
2018-05-08T23:08:13.537Z,59.78
2018-05-08T23:10:39.321Z,59.66
2018-05-08T23:13:05.338Z,60.12
2018-05-08T23:15:31.121Z,59.27
2018-05-08T23:17:56.923Z,59.60
2018-05-08T23:20:22.718Z,59.91
2018-05-08T23:22:48.510Z,60.12
2018-05-08T23:25:14.298Z,60.17
2018-05-08T23:27:40.126Z,60.05
2018-05-08T23:30:05.901Z,60.30
2018-05-08T23:32:31.705Z,60.33
2018-05-08T23:34:57.534Z,60.41
2018-05-08T23:37:23.331Z,60.23
2018-05-08T23:39:49.116Z,60.74
2018-05-08T23:42:14.909Z,60.43
2018-05-08T23:44:40.701Z,60.77
2018-05-08T23:47:06.533Z,60.71
2018-05-08T23:49:32.338Z,60.98
2018-05-08T23:51:58.117Z,61.48
2018-05-08T23:54:23.929Z,61.88
2018-05-08T23:56:49.709Z,61.18
2018-05-08T23:59:15.485Z,61.43
